Time;durP1;ratioP1;P1;durP2;ratioP2;P2;SDS_P1;SDS_P2;PMS_P1;PMS_P2;Temp;Humidity;BMP_temperature;BMP_pressure;BME280_temperature;BME280_humidity;BME280_pressure;Samples;Min_cycle;Max_cycle;Signal;HPM_P1;HPM_P2
2024/01/25 00:00:25;;;;;;;;;;;7.10;78.00;;;;;;4170311;28;19917;-82
2024/01/25 00:02:46;;;;;;;;;;;7.10;77.80;;;;;;4165065;28;20019;-82
2024/01/25 00:05:06;;;;;;;;;;;7.10;77.90;;;;;;4166918;28;19916;-81
2024/01/25 00:07:27;;;;;;;;;;;7.10;77.90;;;;;;4165470;28;19935;-80
2024/01/25 00:09:47;;;;;;;;;;;7.20;77.80;;;;;;4162251;28;19979;-80
2024/01/25 00:12:08;;;;;;;;;;;7.20;77.80;;;;;;4165461;28;19943;-82
2024/01/25 00:14:28;;;;;;;;;;;7.10;77.60;;;;;;4165820;28;19917;-80
2024/01/25 00:16:49;;;;;;;;;;;7.10;77.60;;;;;;4161119;28;20185;-81
2024/01/25 00:19:10;;;;;;;;;;;7.10;77.50;;;;;;4163550;28;19921;-82
2024/01/25 00:21:30;;;;;;;;;;;7.10;77.50;;;;;;4168535;28;19917;-85
2024/01/25 00:23:50;;;;;;;;;;;7.10;77.50;;;;;;4161911;28;19916;-82
2024/01/25 00:26:11;;;;;;;;;;;7.20;77.40;;;;;;4162895;28;19916;-81
2024/01/25 00:28:33;;;;;;;;;;;7.20;77.30;;;;;;4161980;28;20063;-81
2024/01/25 00:30:34;;;;;;;;;;;7.10;77.20;;;;;;4163671;28;20930;-82
2024/01/25 00:32:34;;;;;;;;;;;7.10;77.10;;;;;;4160541;28;20476;-82
2024/01/25 00:34:35;;;;;;;;;;;7.10;77.00;;;;;;4161668;28;20434;-82
2024/01/25 00:36:35;;;;;;;;;;;7.10;76.90;;;;;;4160642;28;19928;-80
2024/01/25 00:38:36;;;;;;;;;;;7.10;76.90;;;;;;4162351;28;20004;-81
2024/01/25 00:40:37;;;;;;;;;;;7.10;76.80;;;;;;4160614;28;20418;-81
2024/01/25 00:42:40;;;;;;;;;;;7.10;76.80;;;;;;4174851;28;19921;-79
2024/01/25 00:44:41;;;;;;;;;;;7.10;76.70;;;;;;4166898;28;20382;-80
2024/01/25 00:46:42;;;;;;;;;;;7.10;76.80;;;;;;4165089;28;19916;-79
2024/01/25 00:48:43;;;;;;;;;;;7.10;76.70;;;;;;4160507;28;19917;-80
2024/01/25 00:50:44;;;;;;;;;;;7.10;76.60;;;;;;4157729;28;19986;-83
2024/01/25 00:52:44;;;;;;;;;;;7.10;76.60;;;;;;4160605;28;19925;-81
2024/01/25 00:54:45;;;;;;;;;;;7.10;76.50;;;;;;4160591;28;19912;-82
2024/01/25 00:56:48;;;;;;;;;;;7.10;76.50;;;;;;4161583;28;19927;-83
2024/01/25 00:58:50;;;;;;;;;;;7.10;76.40;;;;;;4157126;28;20294;-81
2024/01/25 01:00:51;;;;;;;;;;;7.10;76.40;;;;;;4158256;28;19917;-81
2024/01/25 01:02:52;;;;;;;;;;;7.10;76.50;;;;;;4158107;28;19928;-81
2024/01/25 01:04:55;;;;;;;;;;;7.10;76.60;;;;;;4161063;28;20314;-81
2024/01/25 01:07:16;;;;;;;;;;;7.10;76.60;;;;;;4163991;28;19921;-83
2024/01/25 01:09:36;;;;;;;;;;;7.10;76.40;;;;;;4162045;28;19933;-80
2024/01/25 01:11:57;;;;;;;;;;;7.10;76.40;;;;;;4163073;28;20000;-81
2024/01/25 01:14:17;;;;;;;;;;;7.10;76.40;;;;;;4161007;28;20019;-81
2024/01/25 01:16:38;;;;;;;;;;;7.10;76.50;;;;;;4152479;28;19971;-79
2024/01/25 01:19:05;;;;;;;;;;;7.00;76.40;;;;;;4160872;28;20305;-80
2024/01/25 01:21:06;;;;;;;;;;;7.10;76.60;;;;;;4159041;28;20410;-79
2024/01/25 01:23:25;;;;;;;;;;;7.00;76.60;;;;;;4156616;28;19979;-81
2024/01/25 01:25:25;;;;;;;;;;;7.10;76.60;;;;;;4157357;28;19921;-81
2024/01/25 01:27:46;;;;;;;;;;;7.10;76.60;;;;;;4166937;28;19964;-82
2024/01/25 01:30:08;;;;;;;;;;;7.00;76.60;;;;;;4161866;28;19963;-83
2024/01/25 01:32:28;;;;;;;;;;;7.00;76.50;;;;;;4166846;28;19916;-81
2024/01/25 01:34:49;;;;;;;;;;;7.00;76.60;;;;;;4163436;28;19959;-82
2024/01/25 01:37:09;;;;;;;;;;;7.00;76.60;;;;;;4158186;28;19925;-83
2024/01/25 01:39:30;;;;;;;;;;;7.00;76.70;;;;;;4162368;28;19971;-82
2024/01/25 01:41:50;;;;;;;;;;;7.00;76.70;;;;;;4161304;28;19982;-81
2024/01/25 01:44:11;;;;;;;;;;;7.00;76.90;;;;;;4160751;28;19927;-81
2024/01/25 01:46:37;;;;;;;;;;;7.10;77.70;;;;;;4157837;28;19944;-82
2024/01/25 01:48:42;;;;;;;;;;;7.10;76.80;;;;;;4157996;28;19944;-80
2024/01/25 01:50:43;;;;;;;;;;;7.00;76.90;;;;;;4162100;28;20003;-80
2024/01/25 01:52:45;;;;;;;;;;;7.00;76.80;;;;;;4165652;28;20353;-82
2024/01/25 01:54:45;;;;;;;;;;;7.00;76.90;;;;;;4164527;28;19975;-82
2024/01/25 01:56:46;;;;;;;;;;;7.00;77.10;;;;;;4160893;28;20011;-82
2024/01/25 01:58:47;;;;;;;;;;;7.00;77.30;;;;;;4163722;28;19987;-81
2024/01/25 02:00:48;;;;;;;;;;;7.00;77.40;;;;;;4159415;28;19971;-78
2024/01/25 02:02:49;;;;;;;;;;;7.00;77.60;;;;;;4160724;28;20000;-82
2024/01/25 02:04:50;;;;;;;;;;;7.00;77.50;;;;;;4160435;28;19928;-81
2024/01/25 02:06:51;;;;;;;;;;;7.00;77.60;;;;;;4166612;28;19946;-83
2024/01/25 02:09:12;;;;;;;;;;;7.00;77.60;;;;;;4161461;28;19913;-83
2024/01/25 02:11:33;;;;;;;;;;;7.00;77.60;;;;;;4158346;28;20290;-82
2024/01/25 02:13:53;;;;;;;;;;;6.90;77.50;;;;;;4162215;28;19929;-82
2024/01/25 02:16:15;;;;;;;;;;;6.90;77.70;;;;;;4160628;28;19924;-81
2024/01/25 02:18:15;;;;;;;;;;;6.90;77.70;;;;;;4159603;28;19913;-83
2024/01/25 02:20:36;;;;;;;;;;;6.90;77.80;;;;;;4158877;28;19966;-83
2024/01/25 02:22:56;;;;;;;;;;;6.90;77.80;;;;;;4164591;28;19917;-81
2024/01/25 02:25:17;;;;;;;;;;;6.90;77.90;;;;;;4164422;28;19948;-84
2024/01/25 02:27:38;;;;;;;;;;;6.90;77.80;;;;;;4178133;28;19917;-82
2024/01/25 02:29:59;;;;;;;;;;;6.90;77.80;;;;;;4164752;28;19925;-80
2024/01/25 02:32:19;;;;;;;;;;;6.90;77.90;;;;;;4166476;28;19921;-85
2024/01/25 02:34:40;;;;;;;;;;;6.90;77.80;;;;;;4167619;28;19938;-83
2024/01/25 02:37:00;;;;;;;;;;;6.90;78.40;;;;;;4160771;28;20016;-84
2024/01/25 02:39:01;;;;;;;;;;;6.90;77.70;;;;;;4163756;28;20373;-83
2024/01/25 02:41:02;;;;;;;;;;;7.00;77.70;;;;;;4161557;28;20275;-81
2024/01/25 02:43:02;;;;;;;;;;;6.80;77.50;;;;;;4164514;28;19914;-82
2024/01/25 02:45:03;;;;;;;;;;;6.90;77.80;;;;;;4163864;28;19921;-82
2024/01/25 02:47:03;;;;;;;;;;;6.90;77.90;;;;;;4159287;28;20490;-81
2024/01/25 02:49:04;;;;;;;;;;;7.00;77.80;;;;;;4166166;28;19959;-83
2024/01/25 02:51:04;;;;;;;;;;;6.90;77.70;;;;;;4158956;28;22454;-85
2024/01/25 02:53:05;;;;;;;;;;;6.90;77.50;;;;;;4179157;28;20394;-83
2024/01/25 02:55:06;;;;;;;;;;;6.90;78.30;;;;;;4158528;28;19917;-82
2024/01/25 02:57:12;;;;;;;;;;;6.80;77.60;;;;;;4143978;28;20080;-83
2024/01/25 02:59:13;;;;;;;;;;;6.80;77.60;;;;;;4165156;28;19913;-85
2024/01/25 03:01:40;;;;;;;;;;;6.80;77.80;;;;;;4161398;28;19913;-83
2024/01/25 03:04:01;;;;;;;;;;;6.80;77.90;;;;;;4168592;28;19996;-83
2024/01/25 03:06:16;;;;;;;;;;;6.80;77.80;;;;;;4163460;28;19921;-79
2024/01/25 03:08:36;;;;;;;;;;;7.00;78.00;;;;;;4164501;28;19913;-81
2024/01/25 03:10:57;;;;;;;;;;;6.80;78.00;;;;;;4170731;28;20000;-82
2024/01/25 03:13:17;;;;;;;;;;;6.80;77.70;;;;;;4167243;28;20007;-80
2024/01/25 03:15:38;;;;;;;;;;;6.80;77.60;;;;;;4162243;28;19977;-81
2024/01/25 03:17:58;;;;;;;;;;;6.90;77.50;;;;;;4170042;28;19971;-83
2024/01/25 03:20:19;;;;;;;;;;;6.90;77.50;;;;;;4162947;28;19960;-83
2024/01/25 03:22:39;;;;;;;;;;;6.80;77.30;;;;;;4167627;28;19924;-82
2024/01/25 03:24:40;;;;;;;;;;;6.80;77.40;;;;;;4166767;28;20401;-82
2024/01/25 03:26:40;;;;;;;;;;;6.80;77.40;;;;;;4166458;28;20637;-84
2024/01/25 03:28:41;;;;;;;;;;;6.90;77.50;;;;;;4166159;28;19928;-82
2024/01/25 03:30:42;;;;;;;;;;;6.80;77.40;;;;;;4166484;28;20378;-82
2024/01/25 03:32:42;;;;;;;;;;;6.80;77.40;;;;;;4166363;28;19953;-81
2024/01/25 03:34:43;;;;;;;;;;;6.80;77.40;;;;;;4165072;28;20022;-81
2024/01/25 03:36:43;;;;;;;;;;;6.80;77.50;;;;;;4164346;28;20016;-82
2024/01/25 03:38:44;;;;;;;;;;;6.80;77.50;;;;;;4164351;28;19917;-82
2024/01/25 03:40:45;;;;;;;;;;;6.90;77.60;;;;;;4162537;28;19917;-80
2024/01/25 03:42:45;;;;;;;;;;;7.00;77.60;;;;;;4166168;28;19916;-81
2024/01/25 03:44:47;;;;;;;;;;;6.90;77.50;;;;;;4161379;28;20442;-84
2024/01/25 03:46:48;;;;;;;;;;;6.80;77.50;;;;;;4160524;28;20120;-83
2024/01/25 03:49:08;;;;;;;;;;;6.80;77.60;;;;;;4166105;28;19948;-82
2024/01/25 03:51:28;;;;;;;;;;;6.80;77.80;;;;;;4163013;28;20000;-84
2024/01/25 03:53:29;;;;;;;;;;;6.80;77.90;;;;;;4168551;28;20421;-82
2024/01/25 03:55:30;;;;;;;;;;;6.80;78.00;;;;;;4175201;28;19972;-79
2024/01/25 03:57:50;;;;;;;;;;;6.80;78.10;;;;;;4185673;28;19935;-80
2024/01/25 04:00:11;;;;;;;;;;;6.80;78.20;;;;;;4179767;28;19932;-81
2024/01/25 04:02:32;;;;;;;;;;;6.80;78.30;;;;;;4181674;28;19909;-79
2024/01/25 04:04:32;;;;;;;;;;;6.80;78.40;;;;;;4177251;28;20487;-81
2024/01/25 04:06:33;;;;;;;;;;;6.80;78.70;;;;;;4185560;28;19937;-79
2024/01/25 04:08:33;;;;;;;;;;;6.80;78.70;;;;;;4164363;28;19917;-81
2024/01/25 04:10:34;;;;;;;;;;;6.80;78.80;;;;;;4163330;28;19921;-81
2024/01/25 04:12:35;;;;;;;;;;;6.80;78.90;;;;;;4155182;28;19929;-84
2024/01/25 04:14:35;;;;;;;;;;;6.70;78.80;;;;;;4167129;28;20164;-82
2024/01/25 04:16:36;;;;;;;;;;;6.70;78.90;;;;;;4167956;28;19929;-82
2024/01/25 04:18:36;;;;;;;;;;;6.70;79.10;;;;;;4169103;28;20402;-84
2024/01/25 04:20:37;;;;;;;;;;;6.70;79.20;;;;;;4166728;28;20424;-81
2024/01/25 04:22:42;;;;;;;;;;;6.70;79.30;;;;;;4164749;28;19913;-84
2024/01/25 04:24:53;;;;;;;;;;;6.70;79.20;;;;;;4170928;28;19922;-81
2024/01/25 04:26:54;;;;;;;;;;;6.70;79.20;;;;;;4165250;28;19913;-82
2024/01/25 04:28:55;;;;;;;;;;;6.70;79.20;;;;;;4165972;28;20564;-84
2024/01/25 04:30:57;;;;;;;;;;;6.70;79.20;;;;;;4166164;28;19921;-84
2024/01/25 04:33:17;;;;;;;;;;;6.70;79.20;;;;;;4166876;28;20318;-84
2024/01/25 04:35:38;;;;;;;;;;;6.70;79.30;;;;;;4172544;28;19950;-81
2024/01/25 04:37:58;;;;;;;;;;;6.70;79.40;;;;;;4162727;28;19959;-83
2024/01/25 04:40:19;;;;;;;;;;;6.80;79.30;;;;;;4170813;28;19941;-84
2024/01/25 04:42:39;;;;;;;;;;;6.60;79.20;;;;;;4164828;28;19921;-84
2024/01/25 04:45:00;;;;;;;;;;;6.60;79.20;;;;;;4167713;28;19921;-84
2024/01/25 04:47:21;;;;;;;;;;;6.60;79.20;;;;;;4160273;28;19917;-82
2024/01/25 04:49:34;;;;;;;;;;;6.60;79.20;;;;;;4165003;28;19947;-80
2024/01/25 04:51:35;;;;;;;;;;;6.60;79.30;;;;;;4165272;28;19921;-79
2024/01/25 04:53:35;;;;;;;;;;;6.70;79.50;;;;;;4168437;28;20280;-82
2024/01/25 04:55:37;;;;;;;;;;;6.60;79.40;;;;;;4164238;28;19921;-80
2024/01/25 04:57:47;;;;;;;;;;;6.60;79.40;;;;;;4157576;28;20094;-78
2024/01/25 05:00:09;;;;;;;;;;;6.60;79.50;;;;;;4163154;28;19916;-79
2024/01/25 05:02:30;;;;;;;;;;;6.60;79.40;;;;;;4169167;28;19921;-80
2024/01/25 05:04:50;;;;;;;;;;;6.60;79.50;;;;;;4164216;28;19917;-81
2024/01/25 05:07:11;;;;;;;;;;;6.60;79.80;;;;;;4165468;28;19923;-80
2024/01/25 05:09:31;;;;;;;;;;;6.60;79.70;;;;;;4159379;28;20059;-81
2024/01/25 05:11:52;;;;;;;;;;;6.60;79.60;;;;;;4164002;28;19992;-78
2024/01/25 05:14:12;;;;;;;;;;;6.60;79.60;;;;;;4162038;28;19976;-79
2024/01/25 05:16:35;;;;;;;;;;;6.60;79.60;;;;;;4155789;28;20255;-79
2024/01/25 05:18:35;;;;;;;;;;;6.60;79.60;;;;;;4167858;28;19920;-81
2024/01/25 05:20:37;;;;;;;;;;;6.60;79.70;;;;;;4158957;28;19987;-81
2024/01/25 05:22:40;;;;;;;;;;;6.60;79.70;;;;;;4162839;28;20256;-81
2024/01/25 05:24:41;;;;;;;;;;;6.50;79.60;;;;;;4170132;28;20402;-81
2024/01/25 05:26:41;;;;;;;;;;;6.60;79.70;;;;;;4165498;28;19958;-78
2024/01/25 05:28:42;;;;;;;;;;;6.60;79.60;;;;;;4162214;28;19931;-78
2024/01/25 05:30:43;;;;;;;;;;;6.70;79.70;;;;;;4167556;28;20172;-79
2024/01/25 05:32:44;;;;;;;;;;;6.50;79.70;;;;;;4166021;28;20155;-77
2024/01/25 05:34:44;;;;;;;;;;;6.60;79.60;;;;;;4167750;28;19952;-79
2024/01/25 05:36:45;;;;;;;;;;;6.60;79.60;;;;;;4164814;28;20432;-79
2024/01/25 05:38:45;;;;;;;;;;;6.60;79.60;;;;;;4163843;28;19952;-79
2024/01/25 05:40:51;;;;;;;;;;;6.60;79.40;;;;;;4160552;28;20349;-79
2024/01/25 05:43:12;;;;;;;;;;;6.60;79.60;;;;;;4168747;28;19913;-79
2024/01/25 05:45:13;;;;;;;;;;;6.50;79.50;;;;;;4152220;28;19920;-78
2024/01/25 05:47:34;;;;;;;;;;;6.60;79.50;;;;;;4164591;28;19921;-77
2024/01/25 05:49:55;;;;;;;;;;;6.60;79.50;;;;;;4164172;28;19913;-78
2024/01/25 05:52:16;;;;;;;;;;;6.60;79.60;;;;;;4165966;28;19923;-78
2024/01/25 05:54:36;;;;;;;;;;;6.60;79.60;;;;;;4163938;28;19936;-76
2024/01/25 05:56:57;;;;;;;;;;;6.60;79.60;;;;;;4163665;28;19971;-77
2024/01/25 05:59:17;;;;;;;;;;;6.50;79.50;;;;;;4162521;28;19913;-77
2024/01/25 06:01:38;;;;;;;;;;;6.60;79.50;;;;;;4164577;28;19968;-78
2024/01/25 06:03:58;;;;;;;;;;;6.60;79.50;;;;;;4161846;28;19982;-77
2024/01/25 06:06:19;;;;;;;;;;;6.60;79.50;;;;;;4155572;28;19982;-78
2024/01/25 06:08:23;;;;;;;;;;;6.60;79.60;;;;;;4161057;28;19921;-76
2024/01/25 06:10:24;;;;;;;;;;;6.50;79.50;;;;;;4158761;28;19916;-78
2024/01/25 06:12:24;;;;;;;;;;;6.50;79.60;;;;;;4161276;28;19917;-77
2024/01/25 06:14:28;;;;;;;;;;;6.50;79.60;;;;;;4161857;28;19921;-76
2024/01/25 06:16:44;;;;;;;;;;;6.50;79.60;;;;;;4163994;28;19921;-77
2024/01/25 06:19:05;;;;;;;;;;;6.50;79.60;;;;;;4159962;28;19913;-76
2024/01/25 06:21:25;;;;;;;;;;;6.50;79.60;;;;;;4166087;28;19971;-78
2024/01/25 06:23:46;;;;;;;;;;;6.60;79.60;;;;;;4161194;28;20267;-79
2024/01/25 06:25:55;;;;;;;;;;;6.50;79.40;;;;;;4157054;28;20394;-79
2024/01/25 06:28:16;;;;;;;;;;;6.60;79.40;;;;;;4166958;28;19921;-79
2024/01/25 06:30:36;;;;;;;;;;;6.50;79.20;;;;;;4163829;28;19913;-76
2024/01/25 06:32:57;;;;;;;;;;;6.50;79.00;;;;;;4163312;28;19925;-76
2024/01/25 06:35:18;;;;;;;;;;;6.40;79.00;;;;;;4158270;28;19944;-77
2024/01/25 06:37:38;;;;;;;;;;;6.40;79.10;;;;;;4162606;28;19927;-78
2024/01/25 06:39:59;;;;;;;;;;;6.40;79.10;;;;;;4163936;28;20117;-77
2024/01/25 06:42:19;;;;;;;;;;;6.40;79.20;;;;;;4165674;28;20094;-76
2024/01/25 06:44:40;;;;;;;;;;;6.40;79.30;;;;;;4164559;28;19921;-78
2024/01/25 06:47:00;;;;;;;;;;;6.40;79.50;;;;;;4164176;28;19921;-79
2024/01/25 06:49:21;;;;;;;;;;;6.40;79.60;;;;;;4164956;28;19952;-79
2024/01/25 06:51:41;;;;;;;;;;;6.50;79.70;;;;;;4168623;28;19975;-78
2024/01/25 06:54:02;;;;;;;;;;;6.40;79.60;;;;;;4167902;28;19975;-77
2024/01/25 06:56:22;;;;;;;;;;;6.40;79.70;;;;;;4165910;28;19925;-78
2024/01/25 06:58:43;;;;;;;;;;;6.40;79.80;;;;;;4170154;28;19917;-79
2024/01/25 07:01:06;;;;;;;;;;;6.40;79.80;;;;;;4164582;28;19921;-78
2024/01/25 07:03:27;;;;;;;;;;;6.40;79.90;;;;;;4160595;28;19917;-79
2024/01/25 07:05:29;;;;;;;;;;;6.40;80.00;;;;;;4166674;28;19947;-76
2024/01/25 07:07:32;;;;;;;;;;;6.50;80.20;;;;;;4166669;28;19975;-78
2024/01/25 07:09:33;;;;;;;;;;;6.40;80.10;;;;;;4163211;28;20300;-76
2024/01/25 07:11:33;;;;;;;;;;;6.40;80.10;;;;;;4162786;28;19917;-79
2024/01/25 07:13:34;;;;;;;;;;;6.40;80.20;;;;;;4163097;28;19967;-78
2024/01/25 07:15:35;;;;;;;;;;;6.50;80.30;;;;;;4164509;28;20439;-78
2024/01/25 07:17:35;;;;;;;;;;;6.40;80.50;;;;;;4162157;28;19924;-76
2024/01/25 07:19:36;;;;;;;;;;;6.40;80.30;;;;;;4164451;28;19921;-77
2024/01/25 07:21:37;;;;;;;;;;;6.40;80.20;;;;;;4156813;28;19921;-78
2024/01/25 07:24:02;;;;;;;;;;;6.40;80.10;;;;;;4160360;28;19913;-79
2024/01/25 07:26:04;;;;;;;;;;;6.40;80.10;;;;;;4161324;28;19971;-78
2024/01/25 07:28:25;;;;;;;;;;;6.40;80.10;;;;;;4165559;28;19956;-77
2024/01/25 07:30:36;;;;;;;;;;;6.40;80.00;;;;;;4163048;28;19944;-78
2024/01/25 07:32:56;;;;;;;;;;;6.40;80.10;;;;;;4163098;28;19939;-76
2024/01/25 07:35:17;;;;;;;;;;;6.40;80.10;;;;;;4168565;28;20075;-79
2024/01/25 07:37:41;;;;;;;;;;;6.30;80.00;;;;;;4163561;28;19964;-78
2024/01/25 07:40:03;;;;;;;;;;;6.40;80.10;;;;;;4162657;28;20352;-77
2024/01/25 07:42:24;;;;;;;;;;;6.30;80.00;;;;;;4164602;28;19921;-78
2024/01/25 07:44:44;;;;;;;;;;;6.30;80.00;;;;;;4162954;28;19920;-78
2024/01/25 07:47:05;;;;;;;;;;;6.30;80.10;;;;;;4166655;28;19913;-77
2024/01/25 07:49:26;;;;;;;;;;;6.30;80.20;;;;;;4166901;28;19940;-79
2024/01/25 07:51:41;;;;;;;;;;;6.30;80.30;;;;;;4164687;28;20523;-76
2024/01/25 07:54:02;;;;;;;;;;;6.20;80.20;;;;;;4165095;28;19916;-77
2024/01/25 07:56:23;;;;;;;;;;;6.20;80.30;;;;;;4163359;28;19925;-77
2024/01/25 07:58:43;;;;;;;;;;;6.20;80.40;;;;;;4165978;28;19920;-78
2024/01/25 08:00:51;;;;;;;;;;;6.20;80.50;;;;;;4164341;28;19921;-77
2024/01/25 08:03:11;;;;;;;;;;;6.20;80.50;;;;;;4163932;28;20357;-79
2024/01/25 08:05:32;;;;;;;;;;;6.20;80.50;;;;;;4165312;28;20035;-78
2024/01/25 08:07:52;;;;;;;;;;;6.10;80.50;;;;;;4166967;28;21746;-77
2024/01/25 08:10:13;;;;;;;;;;;6.10;80.50;;;;;;4166379;28;19917;-78
2024/01/25 08:12:34;;;;;;;;;;;6.10;80.50;;;;;;4162064;28;19917;-78
2024/01/25 08:14:54;;;;;;;;;;;6.10;80.60;;;;;;4166151;28;19917;-79
2024/01/25 08:17:15;;;;;;;;;;;6.10;80.60;;;;;;4161391;28;19921;-76
2024/01/25 08:19:35;;;;;;;;;;;6.10;80.70;;;;;;4161943;28;21379;-76
2024/01/25 08:21:56;;;;;;;;;;;6.10;80.70;;;;;;4161448;28;19940;-77
2024/01/25 08:24:16;;;;;;;;;;;6.00;80.60;;;;;;4162137;28;19936;-77
2024/01/25 08:26:17;;;;;;;;;;;6.10;80.80;;;;;;4163553;28;20027;-78
2024/01/25 08:28:18;;;;;;;;;;;6.10;80.70;;;;;;4167023;28;19920;-78
2024/01/25 08:30:19;;;;;;;;;;;6.10;80.70;;;;;;4162940;28;19923;-78
2024/01/25 08:32:19;;;;;;;;;;;6.10;80.80;;;;;;4165284;28;19928;-77
2024/01/25 08:34:21;;;;;;;;;;;6.00;80.70;;;;;;4162095;28;20324;-77
2024/01/25 08:36:22;;;;;;;;;;;6.10;81.00;;;;;;4159871;28;20317;-77
2024/01/25 08:38:23;;;;;;;;;;;6.00;81.00;;;;;;4164166;28;19913;-78
2024/01/25 08:40:43;;;;;;;;;;;6.10;81.10;;;;;;4164398;28;19920;-78
2024/01/25 08:42:44;;;;;;;;;;;6.10;81.10;;;;;;4163207;28;19927;-78
2024/01/25 08:44:51;;;;;;;;;;;6.10;81.10;;;;;;4165389;28;19920;-77
2024/01/25 08:47:11;;;;;;;;;;;6.10;81.10;;;;;;4165810;28;19939;-77
2024/01/25 08:49:32;;;;;;;;;;;6.20;81.30;;;;;;4164574;28;20354;-78
2024/01/25 08:51:53;;;;;;;;;;;6.10;81.40;;;;;;4168569;28;20022;-77
2024/01/25 08:54:13;;;;;;;;;;;6.20;81.40;;;;;;4160947;28;19917;-77
2024/01/25 08:56:34;;;;;;;;;;;6.20;81.40;;;;;;4162966;28;19947;-77
2024/01/25 08:58:55;;;;;;;;;;;6.30;81.50;;;;;;4162798;28;19975;-77
2024/01/25 09:01:15;;;;;;;;;;;6.20;81.30;;;;;;4162637;28;19921;-77
2024/01/25 09:03:36;;;;;;;;;;;6.30;81.30;;;;;;4162880;28;19917;-77
2024/01/25 09:05:57;;;;;;;;;;;6.30;81.30;;;;;;4163721;28;19913;-78
2024/01/25 09:08:17;;;;;;;;;;;6.30;81.20;;;;;;4168834;28;19943;-77
2024/01/25 09:10:38;;;;;;;;;;;6.30;81.20;;;;;;4163486;28;20007;-76
2024/01/25 09:12:59;;;;;;;;;;;6.30;81.00;;;;;;4163933;28;20437;-78
2024/01/25 09:15:00;;;;;;;;;;;6.30;81.00;;;;;;4164069;28;19920;-78
2024/01/25 09:17:00;;;;;;;;;;;6.40;81.10;;;;;;4163216;28;19925;-78
2024/01/25 09:19:21;;;;;;;;;;;6.40;81.10;;;;;;4162432;28;19931;-77
2024/01/25 09:21:42;;;;;;;;;;;6.40;81.10;;;;;;4165896;28;19920;-78
2024/01/25 09:24:02;;;;;;;;;;;6.40;81.10;;;;;;4161988;28;19917;-78
2024/01/25 09:26:23;;;;;;;;;;;6.40;81.10;;;;;;4161484;28;20638;-77
2024/01/25 09:28:43;;;;;;;;;;;6.40;81.10;;;;;;4163868;28;19979;-77
2024/01/25 09:31:04;;;;;;;;;;;6.40;81.10;;;;;;4170166;28;19979;-78
2024/01/25 09:33:25;;;;;;;;;;;6.40;81.00;;;;;;4173354;28;19917;-76
2024/01/25 09:35:47;;;;;;;;;;;6.50;81.00;;;;;;4178340;28;19939;-77
2024/01/25 09:38:08;;;;;;;;;;;6.50;81.00;;;;;;4179012;28;19921;-76
2024/01/25 09:40:29;;;;;;;;;;;6.50;81.00;;;;;;4164034;28;19964;-77
2024/01/25 09:42:52;;;;;;;;;;;6.50;81.00;;;;;;4159467;28;19920;-78
2024/01/25 09:45:16;;;;;;;;;;;6.50;80.90;;;;;;4162166;28;19939;-77
2024/01/25 09:47:36;;;;;;;;;;;6.50;80.80;;;;;;4162484;28;19933;-78
2024/01/25 09:49:57;;;;;;;;;;;6.50;80.90;;;;;;4161368;28;19913;-76
2024/01/25 09:52:19;;;;;;;;;;;6.50;80.90;;;;;;4160808;28;19971;-79
2024/01/25 09:54:40;;;;;;;;;;;6.50;80.80;;;;;;4161476;28;19921;-78
2024/01/25 09:57:03;;;;;;;;;;;6.60;80.90;;;;;;4162116;28;19925;-78
2024/01/25 09:59:24;;;;;;;;;;;6.60;80.80;;;;;;4161495;28;19952;-77
2024/01/25 10:01:24;;;;;;;;;;;6.60;80.80;;;;;;4158435;28;19917;-78
2024/01/25 10:03:25;;;;;;;;;;;6.80;80.80;;;;;;4163920;28;19917;-77
2024/01/25 10:05:29;;;;;;;;;;;6.60;80.50;;;;;;4162401;28;20012;-77
2024/01/25 10:07:50;;;;;;;;;;;6.70;80.60;;;;;;4160171;28;19921;-78
2024/01/25 10:10:11;;;;;;;;;;;6.70;80.40;;;;;;4158970;28;19921;-79
2024/01/25 10:12:32;;;;;;;;;;;6.70;80.30;;;;;;4162919;28;19921;-78
2024/01/25 10:14:53;;;;;;;;;;;6.70;80.30;;;;;;4165010;28;19947;-78
2024/01/25 10:17:13;;;;;;;;;;;6.70;80.30;;;;;;4165705;28;19921;-78
2024/01/25 10:19:34;;;;;;;;;;;6.60;80.20;;;;;;4163130;28;19996;-76
2024/01/25 10:21:35;;;;;;;;;;;6.70;80.50;;;;;;4165879;28;19921;-79
2024/01/25 10:23:37;;;;;;;;;;;6.70;80.50;;;;;;4170720;28;19921;-76
2024/01/25 10:25:37;;;;;;;;;;;6.70;80.40;;;;;;4162489;28;19943;-78
2024/01/25 10:27:38;;;;;;;;;;;6.70;80.40;;;;;;4164348;28;19917;-78
2024/01/25 10:29:39;;;;;;;;;;;6.70;80.40;;;;;;4166970;28;19917;-78
2024/01/25 10:32:00;;;;;;;;;;;6.80;80.40;;;;;;4161110;28;19920;-77
2024/01/25 10:34:01;;;;;;;;;;;6.80;80.60;;;;;;4168872;28;19921;-76
2024/01/25 10:36:22;;;;;;;;;;;6.80;80.50;;;;;;4165063;28;19925;-77
2024/01/25 10:38:44;;;;;;;;;;;6.80;80.50;;;;;;4163272;28;19924;-77
2024/01/25 10:41:05;;;;;;;;;;;6.90;80.70;;;;;;4162602;28;19963;-78
2024/01/25 10:43:26;;;;;;;;;;;6.90;80.50;;;;;;4162531;28;20617;-78
2024/01/25 10:45:47;;;;;;;;;;;6.90;80.40;;;;;;4163522;28;19917;-76
2024/01/25 10:48:07;;;;;;;;;;;7.00;80.40;;;;;;4168652;28;19917;-76
2024/01/25 10:50:28;;;;;;;;;;;7.00;80.30;;;;;;4162850;28;19909;-76
2024/01/25 10:52:49;;;;;;;;;;;7.00;80.30;;;;;;4163754;28;19974;-78
2024/01/25 10:55:11;;;;;;;;;;;7.10;80.20;;;;;;4163541;28;20035;-79
2024/01/25 10:57:35;;;;;;;;;;;7.10;80.10;;;;;;4162794;28;19920;-77
2024/01/25 10:59:36;;;;;;;;;;;7.00;80.00;;;;;;4163381;28;19921;-76
2024/01/25 11:01:37;;;;;;;;;;;7.10;80.10;;;;;;4162290;28;20403;-77
2024/01/25 11:03:38;;;;;;;;;;;7.10;80.10;;;;;;4161334;28;20093;-77
2024/01/25 11:06:07;;;;;;;;;;;7.10;80.30;;;;;;4163694;28;19964;-76
2024/01/25 11:08:28;;;;;;;;;;;7.20;80.40;;;;;;4164555;28;19921;-77
2024/01/25 11:10:51;;;;;;;;;;;7.20;80.30;;;;;;4164399;28;19968;-76
2024/01/25 11:13:14;;;;;;;;;;;7.20;80.10;;;;;;4165307;28;20018;-79
2024/01/25 11:15:35;;;;;;;;;;;7.30;80.10;;;;;;4165989;28;20372;-77
2024/01/25 11:17:57;;;;;;;;;;;7.30;80.00;;;;;;4168012;28;19987;-77
2024/01/25 11:20:20;;;;;;;;;;;7.30;79.80;;;;;;4161050;28;20283;-77
2024/01/25 11:22:20;;;;;;;;;;;7.30;79.50;;;;;;4163678;28;20294;-76
2024/01/25 11:24:22;;;;;;;;;;;7.30;79.30;;;;;;4163730;28;19917;-77
2024/01/25 11:26:24;;;;;;;;;;;7.30;79.10;;;;;;4153301;28;20363;-76
2024/01/25 11:28:44;;;;;;;;;;;7.40;79.00;;;;;;4161515;28;19959;-77
2024/01/25 11:31:05;;;;;;;;;;;7.30;78.80;;;;;;4162750;28;20278;-76
2024/01/25 11:33:11;;;;;;;;;;;7.40;78.80;;;;;;4149221;28;20366;-76
2024/01/25 11:35:32;;;;;;;;;;;7.40;78.80;;;;;;4162744;28;19947;-77
2024/01/25 11:37:52;;;;;;;;;;;7.40;78.70;;;;;;4161764;28;19943;-78
2024/01/25 11:40:14;;;;;;;;;;;7.40;78.70;;;;;;4161920;28;20380;-77
2024/01/25 11:42:35;;;;;;;;;;;7.40;78.70;;;;;;4164101;28;20090;-77
2024/01/25 11:44:35;;;;;;;;;;;7.30;78.40;;;;;;4159211;28;19929;-78
2024/01/25 11:46:36;;;;;;;;;;;7.40;78.50;;;;;;4161972;28;19909;-76
2024/01/25 11:48:40;;;;;;;;;;;7.40;78.40;;;;;;4161600;28;19917;-77
2024/01/25 11:50:41;;;;;;;;;;;7.30;78.10;;;;;;4162268;28;19913;-77
2024/01/25 11:52:42;;;;;;;;;;;7.40;78.00;;;;;;4167704;28;20021;-78
2024/01/25 11:54:42;;;;;;;;;;;7.40;78.50;;;;;;4157705;28;20549;-77
2024/01/25 11:56:43;;;;;;;;;;;7.30;77.90;;;;;;4163585;28;20449;-78
2024/01/25 11:58:58;;;;;;;;;;;7.40;78.00;;;;;;4152449;28;19932;-76
2024/01/25 12:01:19;;;;;;;;;;;7.30;78.00;;;;;;4162719;28;19928;-77
2024/01/25 12:03:22;;;;;;;;;;;7.30;78.10;;;;;;4161212;28;19971;-76
2024/01/25 12:05:43;;;;;;;;;;;7.30;78.30;;;;;;4162539;28;20011;-77
2024/01/25 12:08:08;;;;;;;;;;;7.30;78.50;;;;;;4162863;28;19924;-77
2024/01/25 12:10:28;;;;;;;;;;;7.30;78.60;;;;;;4163565;28;19920;-76
2024/01/25 12:12:49;;;;;;;;;;;7.30;78.70;;;;;;4164784;28;19913;-78
2024/01/25 12:15:10;;;;;;;;;;;7.30;78.70;;;;;;4161228;28;20438;-76
2024/01/25 12:17:30;;;;;;;;;;;7.40;78.80;;;;;;4166727;28;20299;-76
2024/01/25 12:19:53;;;;;;;;;;;7.40;78.50;;;;;;4165663;28;21605;-77
2024/01/25 12:22:19;;;;;;;;;;;7.40;78.50;;;;;;4169206;28;20380;-78
2024/01/25 12:24:20;;;;;;;;;;;7.40;78.40;;;;;;4166392;28;19921;-77
2024/01/25 12:26:20;;;;;;;;;;;7.40;78.00;;;;;;4163648;28;20539;-76
2024/01/25 12:28:41;;;;;;;;;;;7.40;78.10;;;;;;4164370;28;20341;-76
2024/01/25 12:31:03;;;;;;;;;;;7.40;78.20;;;;;;4165151;28;19917;-77
2024/01/25 12:33:23;;;;;;;;;;;7.40;78.20;;;;;;4165732;28;20362;-76
2024/01/25 12:35:44;;;;;;;;;;;7.40;78.10;;;;;;4161069;28;20302;-76
2024/01/25 12:38:04;;;;;;;;;;;7.40;78.10;;;;;;4167647;28;20310;-76
2024/01/25 12:40:25;;;;;;;;;;;7.40;78.00;;;;;;4166972;28;20401;-77
2024/01/25 12:42:46;;;;;;;;;;;7.40;77.60;;;;;;4164033;28;20413;-76
2024/01/25 12:45:06;;;;;;;;;;;7.40;77.40;;;;;;4158225;28;20370;-77
2024/01/25 12:47:27;;;;;;;;;;;7.40;77.50;;;;;;4160878;28;20401;-77
2024/01/25 12:49:28;;;;;;;;;;;7.40;77.40;;;;;;4164300;28;19921;-77
2024/01/25 12:51:49;;;;;;;;;;;7.40;77.40;;;;;;4161782;28;19924;-77
2024/01/25 12:54:09;;;;;;;;;;;7.40;77.90;;;;;;4162225;28;20282;-76
2024/01/25 12:56:30;;;;;;;;;;;7.40;77.20;;;;;;4160855;28;20016;-76
2024/01/25 12:58:50;;;;;;;;;;;7.40;77.30;;;;;;4162128;28;19921;-76
2024/01/25 13:01:11;;;;;;;;;;;7.40;77.20;;;;;;4160711;28;20347;-76
2024/01/25 13:03:32;;;;;;;;;;;7.40;77.60;;;;;;4162978;28;20385;-77
2024/01/25 13:05:52;;;;;;;;;;;7.40;77.50;;;;;;4162937;28;22006;-77